sensor_id;sensor_type;location;lat;lon;timestamp;P1;durP1;ratioP1;P2;durP2;ratioP2
19891;SDS011;10108;50.142;8.724;2023-12-14T00:00:47;16.67;;;9.65;;
19891;SDS011;10108;50.142;8.724;2023-12-14T00:03:13;16.65;;;9.02;;
19891;SDS011;10108;50.142;8.724;2023-12-14T00:05:39;15.88;;;9.45;;
19891;SDS011;10108;50.142;8.724;2023-12-14T00:08:05;14.52;;;8.85;;
19891;SDS011;10108;50.142;8.724;2023-12-14T00:10:31;18.08;;;9.60;;
19891;SDS011;10108;50.142;8.724;2023-12-14T00:12:58;14.75;;;9.15;;
19891;SDS011;10108;50.142;8.724;2023-12-14T00:15:24;15.98;;;9.63;;
19891;SDS011;10108;50.142;8.724;2023-12-14T00:17:50;15.43;;;9.38;;
19891;SDS011;10108;50.142;8.724;2023-12-14T00:20:16;20.27;;;10.57;;
19891;SDS011;10108;50.142;8.724;2023-12-14T00:22:42;14.55;;;8.70;;
19891;SDS011;10108;50.142;8.724;2023-12-14T00:25:08;16.95;;;9.38;;
19891;SDS011;10108;50.142;8.724;2023-12-14T00:27:34;17.38;;;9.75;;
19891;SDS011;10108;50.142;8.724;2023-12-14T00:30:00;18.08;;;10.25;;
19891;SDS011;10108;50.142;8.724;2023-12-14T00:32:27;18.70;;;10.02;;
19891;SDS011;10108;50.142;8.724;2023-12-14T00:34:53;15.98;;;10.15;;
19891;SDS011;10108;50.142;8.724;2023-12-14T00:37:19;16.13;;;9.95;;
19891;SDS011;10108;50.142;8.724;2023-12-14T00:39:45;16.73;;;9.82;;
19891;SDS011;10108;50.142;8.724;2023-12-14T00:42:11;16.65;;;10.20;;
19891;SDS011;10108;50.142;8.724;2023-12-14T00:44:38;15.90;;;10.23;;
19891;SDS011;10108;50.142;8.724;2023-12-14T00:47:04;17.50;;;10.77;;
19891;SDS011;10108;50.142;8.724;2023-12-14T00:49:30;19.77;;;10.35;;
19891;SDS011;10108;50.142;8.724;2023-12-14T00:51:56;14.45;;;9.35;;
19891;SDS011;10108;50.142;8.724;2023-12-14T00:54:24;18.52;;;9.88;;
19891;SDS011;10108;50.142;8.724;2023-12-14T00:56:50;14.35;;;9.25;;
19891;SDS011;10108;50.142;8.724;2023-12-14T00:59:16;14.65;;;9.40;;
19891;SDS011;10108;50.142;8.724;2023-12-14T01:01:42;17.83;;;10.15;;
19891;SDS011;10108;50.142;8.724;2023-12-14T01:04:09;20.00;;;10.77;;
19891;SDS011;10108;50.142;8.724;2023-12-14T01:06:35;18.65;;;10.65;;
19891;SDS011;10108;50.142;8.724;2023-12-14T01:09:01;18.30;;;10.73;;
19891;SDS011;10108;50.142;8.724;2023-12-14T01:11:27;17.23;;;9.73;;
19891;SDS011;10108;50.142;8.724;2023-12-14T01:13:53;14.73;;;9.23;;
19891;SDS011;10108;50.142;8.724;2023-12-14T01:16:19;19.92;;;10.18;;
19891;SDS011;10108;50.142;8.724;2023-12-14T01:18:45;15.27;;;9.77;;
19891;SDS011;10108;50.142;8.724;2023-12-14T01:21:12;17.02;;;10.40;;
19891;SDS011;10108;50.142;8.724;2023-12-14T01:23:38;15.70;;;10.43;;
19891;SDS011;10108;50.142;8.724;2023-12-14T01:26:04;16.20;;;10.07;;
19891;SDS011;10108;50.142;8.724;2023-12-14T01:28:30;18.70;;;10.45;;
19891;SDS011;10108;50.142;8.724;2023-12-14T01:30:56;17.52;;;10.35;;
19891;SDS011;10108;50.142;8.724;2023-12-14T01:33:22;15.25;;;9.60;;
19891;SDS011;10108;50.142;8.724;2023-12-14T01:35:48;17.67;;;10.63;;
19891;SDS011;10108;50.142;8.724;2023-12-14T01:38:14;17.45;;;10.65;;
19891;SDS011;10108;50.142;8.724;2023-12-14T01:40:41;17.90;;;11.00;;
19891;SDS011;10108;50.142;8.724;2023-12-14T01:43:12;20.30;;;10.98;;
19891;SDS011;10108;50.142;8.724;2023-12-14T01:45:38;19.67;;;11.70;;
19891;SDS011;10108;50.142;8.724;2023-12-14T01:48:04;29.70;;;12.10;;
19891;SDS011;10108;50.142;8.724;2023-12-14T01:50:31;19.58;;;11.60;;
19891;SDS011;10108;50.142;8.724;2023-12-14T01:52:57;23.45;;;11.48;;
19891;SDS011;10108;50.142;8.724;2023-12-14T01:55:23;21.67;;;11.52;;
19891;SDS011;10108;50.142;8.724;2023-12-14T01:57:51;23.48;;;11.82;;
19891;SDS011;10108;50.142;8.724;2023-12-14T02:03:29;27.65;;;12.30;;
19891;SDS011;10108;50.142;8.724;2023-12-14T02:05:55;27.15;;;13.13;;
19891;SDS011;10108;50.142;8.724;2023-12-14T02:08:27;28.15;;;13.80;;
19891;SDS011;10108;50.142;8.724;2023-12-14T02:10:54;28.58;;;13.48;;
19891;SDS011;10108;50.142;8.724;2023-12-14T02:13:20;32.42;;;14.20;;
19891;SDS011;10108;50.142;8.724;2023-12-14T02:15:46;33.17;;;15.02;;
19891;SDS011;10108;50.142;8.724;2023-12-14T02:18:13;32.28;;;14.88;;
19891;SDS011;10108;50.142;8.724;2023-12-14T02:20:39;37.80;;;14.27;;
19891;SDS011;10108;50.142;8.724;2023-12-14T02:23:05;34.13;;;15.00;;
19891;SDS011;10108;50.142;8.724;2023-12-14T02:25:32;41.95;;;16.05;;
19891;SDS011;10108;50.142;8.724;2023-12-14T02:27:58;39.25;;;16.15;;
19891;SDS011;10108;50.142;8.724;2023-12-14T02:30:24;40.45;;;16.70;;
19891;SDS011;10108;50.142;8.724;2023-12-14T02:32:50;37.50;;;15.82;;
19891;SDS011;10108;50.142;8.724;2023-12-14T02:35:16;38.42;;;16.05;;
19891;SDS011;10108;50.142;8.724;2023-12-14T02:37:43;38.65;;;16.90;;
19891;SDS011;10108;50.142;8.724;2023-12-14T02:40:10;33.53;;;15.05;;
19891;SDS011;10108;50.142;8.724;2023-12-14T02:42:36;36.72;;;16.52;;
19891;SDS011;10108;50.142;8.724;2023-12-14T02:45:03;36.05;;;16.20;;
19891;SDS011;10108;50.142;8.724;2023-12-14T02:47:29;35.13;;;17.10;;
19891;SDS011;10108;50.142;8.724;2023-12-14T02:49:56;29.45;;;14.98;;
19891;SDS011;10108;50.142;8.724;2023-12-14T02:52:22;35.40;;;15.48;;
19891;SDS011;10108;50.142;8.724;2023-12-14T02:54:48;28.13;;;16.10;;
19891;SDS011;10108;50.142;8.724;2023-12-14T02:57:14;31.98;;;15.70;;
19891;SDS011;10108;50.142;8.724;2023-12-14T02:59:40;28.58;;;15.55;;
19891;SDS011;10108;50.142;8.724;2023-12-14T03:02:06;28.50;;;15.27;;
19891;SDS011;10108;50.142;8.724;2023-12-14T03:04:33;30.98;;;15.80;;
19891;SDS011;10108;50.142;8.724;2023-12-14T03:06:59;31.25;;;15.40;;
19891;SDS011;10108;50.142;8.724;2023-12-14T03:09:31;27.35;;;13.95;;
19891;SDS011;10108;50.142;8.724;2023-12-14T03:11:57;28.35;;;15.23;;
19891;SDS011;10108;50.142;8.724;2023-12-14T03:14:24;31.77;;;14.75;;
19891;SDS011;10108;50.142;8.724;2023-12-14T03:16:50;28.17;;;14.23;;
19891;SDS011;10108;50.142;8.724;2023-12-14T03:19:16;25.08;;;12.57;;
19891;SDS011;10108;50.142;8.724;2023-12-14T03:21:43;26.67;;;13.27;;
19891;SDS011;10108;50.142;8.724;2023-12-14T03:24:09;30.38;;;13.77;;
19891;SDS011;10108;50.142;8.724;2023-12-14T03:26:35;28.00;;;13.55;;
19891;SDS011;10108;50.142;8.724;2023-12-14T03:29:02;27.30;;;14.20;;
19891;SDS011;10108;50.142;8.724;2023-12-14T03:31:34;31.05;;;14.13;;
19891;SDS011;10108;50.142;8.724;2023-12-14T03:34:01;27.65;;;14.43;;
19891;SDS011;10108;50.142;8.724;2023-12-14T03:36:28;34.17;;;14.65;;
19891;SDS011;10108;50.142;8.724;2023-12-14T03:38:54;25.73;;;13.35;;
19891;SDS011;10108;50.142;8.724;2023-12-14T03:41:20;25.17;;;13.65;;
19891;SDS011;10108;50.142;8.724;2023-12-14T03:43:46;28.02;;;14.05;;
19891;SDS011;10108;50.142;8.724;2023-12-14T03:46:12;23.85;;;13.18;;
19891;SDS011;10108;50.142;8.724;2023-12-14T03:48:39;26.15;;;13.95;;
19891;SDS011;10108;50.142;8.724;2023-12-14T03:51:06;30.05;;;13.93;;
19891;SDS011;10108;50.142;8.724;2023-12-14T03:53:32;30.67;;;14.68;;
19891;SDS011;10108;50.142;8.724;2023-12-14T03:55:58;28.70;;;13.25;;
19891;SDS011;10108;50.142;8.724;2023-12-14T03:58:24;23.58;;;13.07;;
19891;SDS011;10108;50.142;8.724;2023-12-14T04:00:50;27.88;;;12.75;;
19891;SDS011;10108;50.142;8.724;2023-12-14T04:03:16;25.35;;;12.48;;
19891;SDS011;10108;50.142;8.724;2023-12-14T04:05:42;26.40;;;12.13;;
19891;SDS011;10108;50.142;8.724;2023-12-14T04:08:10;22.38;;;12.45;;
19891;SDS011;10108;50.142;8.724;2023-12-14T04:10:36;23.40;;;11.57;;
19891;SDS011;10108;50.142;8.724;2023-12-14T04:13:02;21.70;;;11.80;;
19891;SDS011;10108;50.142;8.724;2023-12-14T04:15:28;36.47;;;13.07;;
19891;SDS011;10108;50.142;8.724;2023-12-14T04:17:54;28.67;;;13.02;;
19891;SDS011;10108;50.142;8.724;2023-12-14T04:20:20;25.77;;;11.27;;
19891;SDS011;10108;50.142;8.724;2023-12-14T04:22:47;24.45;;;12.55;;
19891;SDS011;10108;50.142;8.724;2023-12-14T04:25:13;20.73;;;12.25;;
19891;SDS011;10108;50.142;8.724;2023-12-14T04:27:40;21.00;;;12.27;;
19891;SDS011;10108;50.142;8.724;2023-12-14T04:30:06;19.33;;;11.50;;
19891;SDS011;10108;50.142;8.724;2023-12-14T04:32:36;20.33;;;11.55;;
19891;SDS011;10108;50.142;8.724;2023-12-14T04:35:03;18.35;;;11.35;;
19891;SDS011;10108;50.142;8.724;2023-12-14T04:37:30;19.48;;;11.52;;
19891;SDS011;10108;50.142;8.724;2023-12-14T04:39:59;20.65;;;11.05;;
19891;SDS011;10108;50.142;8.724;2023-12-14T04:42:26;18.85;;;11.05;;
19891;SDS011;10108;50.142;8.724;2023-12-14T04:44:52;18.40;;;11.07;;
19891;SDS011;10108;50.142;8.724;2023-12-14T04:47:18;18.98;;;11.48;;
19891;SDS011;10108;50.142;8.724;2023-12-14T04:49:44;19.08;;;11.55;;
19891;SDS011;10108;50.142;8.724;2023-12-14T04:52:10;20.15;;;11.10;;
19891;SDS011;10108;50.142;8.724;2023-12-14T04:54:36;17.58;;;11.00;;
19891;SDS011;10108;50.142;8.724;2023-12-14T04:57:05;18.02;;;10.93;;
19891;SDS011;10108;50.142;8.724;2023-12-14T04:59:31;23.75;;;11.20;;
19891;SDS011;10108;50.142;8.724;2023-12-14T05:01:57;22.40;;;11.40;;
19891;SDS011;10108;50.142;8.724;2023-12-14T05:04:24;18.10;;;10.90;;
19891;SDS011;10108;50.142;8.724;2023-12-14T05:06:50;19.67;;;11.60;;
19891;SDS011;10108;50.142;8.724;2023-12-14T05:09:16;17.42;;;9.88;;
19891;SDS011;10108;50.142;8.724;2023-12-14T05:11:42;19.98;;;11.10;;
19891;SDS011;10108;50.142;8.724;2023-12-14T05:14:09;24.88;;;12.00;;
19891;SDS011;10108;50.142;8.724;2023-12-14T05:16:35;25.13;;;13.02;;
19891;SDS011;10108;50.142;8.724;2023-12-14T05:19:01;21.90;;;11.88;;
19891;SDS011;10108;50.142;8.724;2023-12-14T05:21:27;20.83;;;11.40;;
19891;SDS011;10108;50.142;8.724;2023-12-14T05:23:53;26.58;;;12.35;;
19891;SDS011;10108;50.142;8.724;2023-12-14T05:26:19;24.00;;;11.95;;
19891;SDS011;10108;50.142;8.724;2023-12-14T05:28:46;25.55;;;12.13;;
19891;SDS011;10108;50.142;8.724;2023-12-14T05:31:12;28.15;;;12.60;;
19891;SDS011;10108;50.142;8.724;2023-12-14T05:33:38;23.48;;;13.05;;
19891;SDS011;10108;50.142;8.724;2023-12-14T05:36:05;22.13;;;11.77;;
19891;SDS011;10108;50.142;8.724;2023-12-14T05:38:38;26.63;;;11.68;;
19891;SDS011;10108;50.142;8.724;2023-12-14T05:41:04;20.35;;;11.18;;
19891;SDS011;10108;50.142;8.724;2023-12-14T05:43:31;23.27;;;11.10;;
19891;SDS011;10108;50.142;8.724;2023-12-14T05:45:57;36.10;;;11.85;;
19891;SDS011;10108;50.142;8.724;2023-12-14T05:48:24;27.40;;;11.57;;
19891;SDS011;10108;50.142;8.724;2023-12-14T05:50:52;26.58;;;11.95;;
19891;SDS011;10108;50.142;8.724;2023-12-14T05:53:18;24.70;;;12.80;;
19891;SDS011;10108;50.142;8.724;2023-12-14T05:55:44;32.47;;;12.60;;
19891;SDS011;10108;50.142;8.724;2023-12-14T05:58:10;26.17;;;12.57;;
19891;SDS011;10108;50.142;8.724;2023-12-14T06:00:36;45.20;;;13.25;;
19891;SDS011;10108;50.142;8.724;2023-12-14T06:03:03;32.03;;;12.70;;
19891;SDS011;10108;50.142;8.724;2023-12-14T06:05:29;32.05;;;12.32;;
19891;SDS011;10108;50.142;8.724;2023-12-14T06:07:55;30.60;;;12.52;;
19891;SDS011;10108;50.142;8.724;2023-12-14T06:10:21;27.45;;;12.30;;
19891;SDS011;10108;50.142;8.724;2023-12-14T06:12:47;30.02;;;12.95;;
19891;SDS011;10108;50.142;8.724;2023-12-14T06:15:13;30.42;;;12.95;;
19891;SDS011;10108;50.142;8.724;2023-12-14T06:17:39;25.42;;;12.43;;
19891;SDS011;10108;50.142;8.724;2023-12-14T06:20:08;25.38;;;12.68;;
19891;SDS011;10108;50.142;8.724;2023-12-14T06:22:37;29.08;;;13.68;;
19891;SDS011;10108;50.142;8.724;2023-12-14T06:25:03;26.05;;;13.30;;
19891;SDS011;10108;50.142;8.724;2023-12-14T06:27:30;24.80;;;13.18;;
19891;SDS011;10108;50.142;8.724;2023-12-14T06:29:56;22.08;;;12.70;;
19891;SDS011;10108;50.142;8.724;2023-12-14T06:32:22;21.02;;;11.18;;
19891;SDS011;10108;50.142;8.724;2023-12-14T06:34:49;22.77;;;12.70;;
19891;SDS011;10108;50.142;8.724;2023-12-14T06:37:16;26.27;;;12.90;;
19891;SDS011;10108;50.142;8.724;2023-12-14T06:39:42;24.40;;;12.30;;
19891;SDS011;10108;50.142;8.724;2023-12-14T06:42:08;27.25;;;12.50;;
19891;SDS011;10108;50.142;8.724;2023-12-14T06:44:35;22.90;;;12.30;;
19891;SDS011;10108;50.142;8.724;2023-12-14T06:47:01;24.50;;;12.73;;
19891;SDS011;10108;50.142;8.724;2023-12-14T06:49:27;23.40;;;13.07;;
19891;SDS011;10108;50.142;8.724;2023-12-14T06:51:53;22.35;;;12.95;;
19891;SDS011;10108;50.142;8.724;2023-12-14T06:54:19;22.77;;;12.00;;
19891;SDS011;10108;50.142;8.724;2023-12-14T06:56:45;21.17;;;12.60;;
19891;SDS011;10108;50.142;8.724;2023-12-14T06:59:11;20.83;;;12.48;;
19891;SDS011;10108;50.142;8.724;2023-12-14T07:01:37;20.77;;;12.65;;
19891;SDS011;10108;50.142;8.724;2023-12-14T07:04:04;20.67;;;12.05;;
19891;SDS011;10108;50.142;8.724;2023-12-14T07:06:30;22.33;;;11.88;;
19891;SDS011;10108;50.142;8.724;2023-12-14T07:08:56;22.17;;;11.98;;
19891;SDS011;10108;50.142;8.724;2023-12-14T07:11:22;19.38;;;10.82;;
19891;SDS011;10108;50.142;8.724;2023-12-14T07:13:48;19.15;;;10.48;;
19891;SDS011;10108;50.142;8.724;2023-12-14T07:16:14;19.60;;;11.05;;
19891;SDS011;10108;50.142;8.724;2023-12-14T07:18:45;16.85;;;9.93;;
19891;SDS011;10108;50.142;8.724;2023-12-14T07:21:20;17.23;;;10.15;;
19891;SDS011;10108;50.142;8.724;2023-12-14T07:23:47;17.77;;;10.63;;
19891;SDS011;10108;50.142;8.724;2023-12-14T07:26:13;19.15;;;10.25;;
19891;SDS011;10108;50.142;8.724;2023-12-14T07:28:40;19.02;;;10.35;;
19891;SDS011;10108;50.142;8.724;2023-12-14T07:31:06;15.43;;;9.45;;
19891;SDS011;10108;50.142;8.724;2023-12-14T07:33:32;16.88;;;9.57;;
19891;SDS011;10108;50.142;8.724;2023-12-14T07:35:58;18.02;;;10.48;;
19891;SDS011;10108;50.142;8.724;2023-12-14T07:38:24;16.58;;;10.27;;
19891;SDS011;10108;50.142;8.724;2023-12-14T07:40:50;18.02;;;10.38;;
19891;SDS011;10108;50.142;8.724;2023-12-14T07:43:18;18.63;;;10.40;;
19891;SDS011;10108;50.142;8.724;2023-12-14T07:45:44;16.77;;;10.30;;
19891;SDS011;10108;50.142;8.724;2023-12-14T07:48:11;18.63;;;10.68;;
19891;SDS011;10108;50.142;8.724;2023-12-14T07:50:37;15.60;;;9.60;;
19891;SDS011;10108;50.142;8.724;2023-12-14T07:53:03;18.05;;;10.40;;
19891;SDS011;10108;50.142;8.724;2023-12-14T07:55:30;25.35;;;12.98;;
19891;SDS011;10108;50.142;8.724;2023-12-14T07:57:56;20.63;;;10.82;;
19891;SDS011;10108;50.142;8.724;2023-12-14T08:00:25;18.58;;;11.02;;
19891;SDS011;10108;50.142;8.724;2023-12-14T08:02:51;17.70;;;10.32;;
19891;SDS011;10108;50.142;8.724;2023-12-14T08:05:20;18.40;;;10.13;;
19891;SDS011;10108;50.142;8.724;2023-12-14T08:07:46;18.38;;;10.50;;
19891;SDS011;10108;50.142;8.724;2023-12-14T08:10:13;16.77;;;10.25;;
19891;SDS011;10108;50.142;8.724;2023-12-14T08:12:39;18.60;;;10.32;;
19891;SDS011;10108;50.142;8.724;2023-12-14T08:15:05;18.58;;;10.50;;
19891;SDS011;10108;50.142;8.724;2023-12-14T08:17:33;17.20;;;10.10;;
19891;SDS011;10108;50.142;8.724;2023-12-14T08:19:59;18.23;;;10.35;;
19891;SDS011;10108;50.142;8.724;2023-12-14T08:22:25;16.40;;;9.98;;
19891;SDS011;10108;50.142;8.724;2023-12-14T08:24:52;20.02;;;11.05;;
19891;SDS011;10108;50.142;8.724;2023-12-14T08:27:18;17.90;;;10.10;;
19891;SDS011;10108;50.142;8.724;2023-12-14T08:29:44;20.65;;;11.23;;
19891;SDS011;10108;50.142;8.724;2023-12-14T08:32:11;28.48;;;10.95;;
19891;SDS011;10108;50.142;8.724;2023-12-14T08:34:37;25.90;;;11.90;;
19891;SDS011;10108;50.142;8.724;2023-12-14T08:37:06;25.60;;;11.18;;
19891;SDS011;10108;50.142;8.724;2023-12-14T08:39:32;21.85;;;11.55;;
19891;SDS011;10108;50.142;8.724;2023-12-14T08:41:58;20.20;;;11.35;;
19891;SDS011;10108;50.142;8.724;2023-12-14T08:44:24;21.42;;;11.52;;
19891;SDS011;10108;50.142;8.724;2023-12-14T08:46:50;22.58;;;11.50;;
19891;SDS011;10108;50.142;8.724;2023-12-14T08:49:16;19.13;;;10.70;;
19891;SDS011;10108;50.142;8.724;2023-12-14T08:51:42;24.63;;;11.75;;
19891;SDS011;10108;50.142;8.724;2023-12-14T08:54:09;22.95;;;11.13;;
19891;SDS011;10108;50.142;8.724;2023-12-14T08:56:35;24.90;;;11.25;;
19891;SDS011;10108;50.142;8.724;2023-12-14T08:59:01;22.40;;;11.95;;
19891;SDS011;10108;50.142;8.724;2023-12-14T09:01:29;19.30;;;11.30;;
19891;SDS011;10108;50.142;8.724;2023-12-14T09:03:55;21.73;;;10.95;;
19891;SDS011;10108;50.142;8.724;2023-12-14T09:06:21;19.27;;;10.95;;
19891;SDS011;10108;50.142;8.724;2023-12-14T09:08:47;19.77;;;11.05;;
19891;SDS011;10108;50.142;8.724;2023-12-14T09:11:14;21.55;;;11.13;;
19891;SDS011;10108;50.142;8.724;2023-12-14T09:13:41;19.88;;;11.10;;
19891;SDS011;10108;50.142;8.724;2023-12-14T09:16:07;23.10;;;11.82;;
19891;SDS011;10108;50.142;8.724;2023-12-14T09:18:34;19.50;;;11.18;;
19891;SDS011;10108;50.142;8.724;2023-12-14T09:21:00;21.33;;;11.88;;
19891;SDS011;10108;50.142;8.724;2023-12-14T09:23:26;29.55;;;12.13;;
19891;SDS011;10108;50.142;8.724;2023-12-14T09:25:52;22.35;;;12.40;;
19891;SDS011;10108;50.142;8.724;2023-12-14T09:28:18;23.58;;;12.02;;
19891;SDS011;10108;50.142;8.724;2023-12-14T09:30:45;28.95;;;13.00;;
19891;SDS011;10108;50.142;8.724;2023-12-14T09:33:11;28.67;;;13.13;;
19891;SDS011;10108;50.142;8.724;2023-12-14T09:35:37;34.08;;;12.50;;
19891;SDS011;10108;50.142;8.724;2023-12-14T09:38:04;27.60;;;14.43;;
19891;SDS011;10108;50.142;8.724;2023-12-14T09:40:31;25.33;;;14.90;;
19891;SDS011;10108;50.142;8.724;2023-12-14T09:42:58;29.08;;;17.30;;
19891;SDS011;10108;50.142;8.724;2023-12-14T09:45:26;30.25;;;18.88;;
19891;SDS011;10108;50.142;8.724;2023-12-14T09:47:54;30.35;;;17.40;;
19891;SDS011;10108;50.142;8.724;2023-12-14T09:50:25;30.33;;;19.58;;
19891;SDS011;10108;50.142;8.724;2023-12-14T09:52:51;30.38;;;21.10;;
19891;SDS011;10108;50.142;8.724;2023-12-14T09:55:18;36.90;;;21.33;;
19891;SDS011;10108;50.142;8.724;2023-12-14T09:57:44;32.50;;;21.17;;
19891;SDS011;10108;50.142;8.724;2023-12-14T10:00:11;31.45;;;22.25;;
19891;SDS011;10108;50.142;8.724;2023-12-14T10:02:40;31.73;;;20.92;;
19891;SDS011;10108;50.142;8.724;2023-12-14T10:05:10;31.80;;;22.23;;
19891;SDS011;10108;50.142;8.724;2023-12-14T10:07:42;34.65;;;21.85;;
19891;SDS011;10108;50.142;8.724;2023-12-14T10:10:12;32.83;;;21.55;;
19891;SDS011;10108;50.142;8.724;2023-12-14T10:12:52;32.72;;;21.92;;
19891;SDS011;10108;50.142;8.724;2023-12-14T10:15:18;33.03;;;21.50;;
19891;SDS011;10108;50.142;8.724;2023-12-14T10:17:45;29.55;;;20.30;;
19891;SDS011;10108;50.142;8.724;2023-12-14T10:20:19;28.48;;;19.80;;
19891;SDS011;10108;50.142;8.724;2023-12-14T10:22:47;34.28;;;21.85;;
19891;SDS011;10108;50.142;8.724;2023-12-14T10:25:20;30.15;;;20.73;;
19891;SDS011;10108;50.142;8.724;2023-12-14T10:27:47;32.25;;;20.85;;
19891;SDS011;10108;50.142;8.724;2023-12-14T10:30:18;30.65;;;21.20;;
19891;SDS011;10108;50.142;8.724;2023-12-14T10:32:48;30.70;;;20.40;;
19891;SDS011;10108;50.142;8.724;2023-12-14T10:35:16;26.42;;;19.77;;
19891;SDS011;10108;50.142;8.724;2023-12-14T10:37:44;26.38;;;19.38;;
19891;SDS011;10108;50.142;8.724;2023-12-14T10:40:14;26.30;;;18.15;;
19891;SDS011;10108;50.142;8.724;2023-12-14T10:42:42;29.27;;;19.13;;
19891;SDS011;10108;50.142;8.724;2023-12-14T10:45:13;27.05;;;18.63;;
19891;SDS011;10108;50.142;8.724;2023-12-14T10:47:43;25.67;;;18.27;;
19891;SDS011;10108;50.142;8.724;2023-12-14T10:50:10;22.95;;;18.10;;
19891;SDS011;10108;50.142;8.724;2023-12-14T10:52:37;23.65;;;17.42;;
19891;SDS011;10108;50.142;8.724;2023-12-14T10:55:09;24.10;;;18.20;;
19891;SDS011;10108;50.142;8.724;2023-12-14T10:57:40;25.23;;;18.30;;
19891;SDS011;10108;50.142;8.724;2023-12-14T11:00:07;29.85;;;19.05;;
19891;SDS011;10108;50.142;8.724;2023-12-14T11:02:40;24.20;;;17.65;;
19891;SDS011;10108;50.142;8.724;2023-12-14T11:05:15;19.75;;;15.68;;
19891;SDS011;10108;50.142;8.724;2023-12-14T11:07:53;25.65;;;17.23;;
19891;SDS011;10108;50.142;8.724;2023-12-14T11:13:17;18.83;;;14.45;;
19891;SDS011;10108;50.142;8.724;2023-12-14T11:15:51;21.60;;;15.02;;
19891;SDS011;10108;50.142;8.724;2023-12-14T11:20:47;14.23;;;12.73;;
19891;SDS011;10108;50.142;8.724;2023-12-14T11:25:51;14.90;;;12.18;;
19891;SDS011;10108;50.142;8.724;2023-12-14T11:28:23;13.75;;;11.75;;
19891;SDS011;10108;50.142;8.724;2023-12-14T11:30:50;14.70;;;12.02;;
19891;SDS011;10108;50.142;8.724;2023-12-14T11:33:16;13.88;;;12.38;;
19891;SDS011;10108;50.142;8.724;2023-12-14T11:35:42;15.32;;;12.40;;
19891;SDS011;10108;50.142;8.724;2023-12-14T11:38:09;15.32;;;12.95;;
19891;SDS011;10108;50.142;8.724;2023-12-14T11:40:43;14.52;;;12.32;;
19891;SDS011;10108;50.142;8.724;2023-12-14T11:43:10;14.18;;;12.40;;
19891;SDS011;10108;50.142;8.724;2023-12-14T11:45:39;13.68;;;11.90;;
19891;SDS011;10108;50.142;8.724;2023-12-14T11:48:06;13.40;;;11.93;;
19891;SDS011;10108;50.142;8.724;2023-12-14T11:50:36;13.25;;;11.85;;
19891;SDS011;10108;50.142;8.724;2023-12-14T11:53:07;13.15;;;11.65;;
19891;SDS011;10108;50.142;8.724;2023-12-14T11:55:34;13.25;;;11.55;;
19891;SDS011;10108;50.142;8.724;2023-12-14T11:58:02;13.23;;;11.90;;
19891;SDS011;10108;50.142;8.724;2023-12-14T12:00:29;12.75;;;11.45;;
19891;SDS011;10108;50.142;8.724;2023-12-14T12:05:47;12.73;;;11.25;;
19891;SDS011;10108;50.142;8.724;2023-12-14T12:08:16;12.23;;;10.88;;
19891;SDS011;10108;50.142;8.724;2023-12-14T12:10:47;11.20;;;10.10;;
19891;SDS011;10108;50.142;8.724;2023-12-14T12:13:16;11.00;;;9.90;;
19891;SDS011;10108;50.142;8.724;2023-12-14T12:15:43;10.70;;;9.70;;
19891;SDS011;10108;50.142;8.724;2023-12-14T12:18:10;11.60;;;10.18;;
19891;SDS011;10108;50.142;8.724;2023-12-14T12:20:37;11.88;;;10.20;;
19891;SDS011;10108;50.142;8.724;2023-12-14T12:23:04;11.27;;;10.07;;
19891;SDS011;10108;50.142;8.724;2023-12-14T12:25:31;13.00;;;10.52;;
19891;SDS011;10108;50.142;8.724;2023-12-14T12:27:58;11.07;;;9.98;;
19891;SDS011;10108;50.142;8.724;2023-12-14T12:30:24;10.77;;;9.65;;
19891;SDS011;10108;50.142;8.724;2023-12-14T12:32:51;11.00;;;9.80;;
19891;SDS011;10108;50.142;8.724;2023-12-14T12:35:18;10.07;;;8.95;;
19891;SDS011;10108;50.142;8.724;2023-12-14T12:37:45;11.30;;;9.80;;
19891;SDS011;10108;50.142;8.724;2023-12-14T12:40:11;10.75;;;9.48;;
19891;SDS011;10108;50.142;8.724;2023-12-14T12:42:38;12.35;;;9.75;;
19891;SDS011;10108;50.142;8.724;2023-12-14T12:45:05;13.20;;;9.85;;
19891;SDS011;10108;50.142;8.724;2023-12-14T12:47:32;10.55;;;9.45;;
19891;SDS011;10108;50.142;8.724;2023-12-14T12:49:58;11.45;;;9.30;;
19891;SDS011;10108;50.142;8.724;2023-12-14T12:52:24;9.75;;;8.35;;
19891;SDS011;10108;50.142;8.724;2023-12-14T12:54:51;10.68;;;8.57;;
19891;SDS011;10108;50.142;8.724;2023-12-14T12:57:17;10.02;;;8.27;;
19891;SDS011;10108;50.142;8.724;2023-12-14T12:59:43;10.55;;;8.65;;
19891;SDS011;10108;50.142;8.724;2023-12-14T13:02:09;10.60;;;8.60;;
19891;SDS011;10108;50.142;8.724;2023-12-14T13:04:35;11.05;;;8.25;;
19891;SDS011;10108;50.142;8.724;2023-12-14T13:07:02;11.15;;;8.38;;
19891;SDS011;10108;50.142;8.724;2023-12-14T13:09:29;9.05;;;7.25;;
19891;SDS011;10108;50.142;8.724;2023-12-14T13:11:56;9.73;;;7.60;;
19891;SDS011;10108;50.142;8.724;2023-12-14T13:14:22;9.88;;;7.40;;
19891;SDS011;10108;50.142;8.724;2023-12-14T13:16:48;11.15;;;8.10;;
19891;SDS011;10108;50.142;8.724;2023-12-14T13:19:15;10.07;;;7.85;;
19891;SDS011;10108;50.142;8.724;2023-12-14T13:21:41;11.57;;;8.02;;
19891;SDS011;10108;50.142;8.724;2023-12-14T13:24:07;9.40;;;7.53;;
19891;SDS011;10108;50.142;8.724;2023-12-14T13:26:33;11.85;;;7.90;;
19891;SDS011;10108;50.142;8.724;2023-12-14T13:28:59;10.15;;;7.85;;
19891;SDS011;10108;50.142;8.724;2023-12-14T13:31:26;9.60;;;7.70;;
19891;SDS011;10108;50.142;8.724;2023-12-14T13:33:52;9.52;;;7.50;;
19891;SDS011;10108;50.142;8.724;2023-12-14T13:36:19;9.40;;;7.32;;
19891;SDS011;10108;50.142;8.724;2023-12-14T13:38:45;9.38;;;7.30;;
19891;SDS011;10108;50.142;8.724;2023-12-14T13:41:11;10.13;;;7.22;;
19891;SDS011;10108;50.142;8.724;2023-12-14T13:43:38;8.82;;;7.15;;
19891;SDS011;10108;50.142;8.724;2023-12-14T13:46:04;8.75;;;6.63;;
19891;SDS011;10108;50.142;8.724;2023-12-14T13:48:31;7.88;;;6.47;;
19891;SDS011;10108;50.142;8.724;2023-12-14T13:50:58;9.10;;;6.60;;
19891;SDS011;10108;50.142;8.724;2023-12-14T13:53:24;8.02;;;6.15;;
19891;SDS011;10108;50.142;8.724;2023-12-14T13:55:50;9.27;;;6.63;;
19891;SDS011;10108;50.142;8.724;2023-12-14T13:58:17;8.63;;;6.30;;
19891;SDS011;10108;50.142;8.724;2023-12-14T14:00:43;9.60;;;6.50;;
19891;SDS011;10108;50.142;8.724;2023-12-14T14:03:09;8.23;;;6.13;;
19891;SDS011;10108;50.142;8.724;2023-12-14T14:05:36;8.98;;;6.28;;
19891;SDS011;10108;50.142;8.724;2023-12-14T14:08:02;11.80;;;8.13;;
19891;SDS011;10108;50.142;8.724;2023-12-14T14:10:29;10.48;;;7.20;;
19891;SDS011;10108;50.142;8.724;2023-12-14T14:12:55;9.40;;;6.88;;
19891;SDS011;10108;50.142;8.724;2023-12-14T14:15:22;8.05;;;5.93;;
19891;SDS011;10108;50.142;8.724;2023-12-14T14:17:48;8.82;;;5.90;;
19891;SDS011;10108;50.142;8.724;2023-12-14T14:20:17;8.23;;;5.97;;
19891;SDS011;10108;50.142;8.724;2023-12-14T14:22:44;8.52;;;6.20;;
19891;SDS011;10108;50.142;8.724;2023-12-14T14:25:10;9.13;;;6.35;;
19891;SDS011;10108;50.142;8.724;2023-12-14T14:27:36;10.35;;;5.90;;
19891;SDS011;10108;50.142;8.724;2023-12-14T14:30:03;8.18;;;5.18;;
19891;SDS011;10108;50.142;8.724;2023-12-14T14:32:30;7.75;;;5.28;;
19891;SDS011;10108;50.142;8.724;2023-12-14T14:35:01;7.40;;;5.28;;
19891;SDS011;10108;50.142;8.724;2023-12-14T14:37:27;7.43;;;5.15;;